Decoded Metar for LHBP (BUDAPEST in HUNGARY) (IATA:BUD) | Meteo·Mobile Aviation Weather
aviador You're here:

LHBP Decoded Metar

BUDAPEST in HUNGARY
Report Time2019-04-23 07:30:00
UTC Time2019-04-23 07:56:00
Flight Rules vfr VFR
Wind110° at 19 kt
W.Decomp.*RWY 13: 17.4 kt HW 7.7 kt LCW
Visibility9999 m
Phenomena:N/A
Clouds:N/A
Expected CloudBase > 2,400 ft AGL from Temp-Dew spread
CeilingNone
Temp12°C (ISA -2)
Dew Point06°C (67% RH)
AAT4.3°C
QNH1016 hPa
Density Alt423 ft
Elevation607 ft
Report Wrong Elevation
Raw Report
LHBP 230730Z 11019KT CAVOK 12/06 Q1016 NOSIG=

Extra information for LHBP:More info

Metar Taf Metar & Taf Last 4 Metars F.Rules Stats Wind Profile Meteogram Temp Stats Airport Information Weather charts Add Link Nearby VenuesMetar ALERT Operation Metar Decoded Social comments